sensor_id;sensor_type;location;lat;lon;timestamp;P1;durP1;ratioP1;P2;durP2;ratioP2
7929;SDS011;4010;42.698;23.124;2023-02-01T00:01:30;2.33;;;1.92;;
7929;SDS011;4010;42.698;23.124;2023-02-01T00:03:57;3.22;;;2.25;;
7929;SDS011;4010;42.698;23.124;2023-02-01T00:06:23;2.38;;;2.15;;
7929;SDS011;4010;42.698;23.124;2023-02-01T00:08:52;2.40;;;1.90;;
7929;SDS011;4010;42.698;23.124;2023-02-01T00:11:19;2.80;;;2.30;;
7929;SDS011;4010;42.698;23.124;2023-02-01T00:13:46;2.28;;;2.00;;
7929;SDS011;4010;42.698;23.124;2023-02-01T00:16:15;4.93;;;1.95;;
7929;SDS011;4010;42.698;23.124;2023-02-01T00:18:43;3.83;;;2.58;;
7929;SDS011;4010;42.698;23.124;2023-02-01T00:21:10;7.05;;;2.25;;
7929;SDS011;4010;42.698;23.124;2023-02-01T00:23:38;11.02;;;1.77;;
7929;SDS011;4010;42.698;23.124;2023-02-01T00:26:05;3.35;;;2.25;;
7929;SDS011;4010;42.698;23.124;2023-02-01T00:28:34;2.55;;;2.03;;
7929;SDS011;4010;42.698;23.124;2023-02-01T00:31:01;2.05;;;1.75;;
7929;SDS011;4010;42.698;23.124;2023-02-01T00:33:31;2.67;;;1.70;;
7929;SDS011;4010;42.698;23.124;2023-02-01T00:35:58;2.35;;;1.75;;
7929;SDS011;4010;42.698;23.124;2023-02-01T00:38:26;2.05;;;1.67;;
7929;SDS011;4010;42.698;23.124;2023-02-01T00:40:53;2.40;;;1.80;;
7929;SDS011;4010;42.698;23.124;2023-02-01T00:43:21;4.47;;;1.92;;
7929;SDS011;4010;42.698;23.124;2023-02-01T00:45:47;4.63;;;2.63;;
7929;SDS011;4010;42.698;23.124;2023-02-01T00:48:14;3.92;;;1.95;;
7929;SDS011;4010;42.698;23.124;2023-02-01T00:50:42;4.70;;;2.03;;
7929;SDS011;4010;42.698;23.124;2023-02-01T00:53:09;2.25;;;1.70;;
7929;SDS011;4010;42.698;23.124;2023-02-01T00:55:36;1.40;;;1.30;;
7929;SDS011;4010;42.698;23.124;2023-02-01T00:58:03;3.97;;;1.80;;
7929;SDS011;4010;42.698;23.124;2023-02-01T01:00:31;1.88;;;1.70;;
7929;SDS011;4010;42.698;23.124;2023-02-01T01:02:57;1.90;;;1.67;;
7929;SDS011;4010;42.698;23.124;2023-02-01T01:05:24;4.57;;;1.92;;
7929;SDS011;4010;42.698;23.124;2023-02-01T01:07:54;2.28;;;2.00;;
7929;SDS011;4010;42.698;23.124;2023-02-01T01:10:20;2.65;;;1.48;;
7929;SDS011;4010;42.698;23.124;2023-02-01T01:12:47;2.45;;;1.70;;
7929;SDS011;4010;42.698;23.124;2023-02-01T01:15:13;1.67;;;1.58;;
7929;SDS011;4010;42.698;23.124;2023-02-01T01:17:40;2.85;;;1.73;;
7929;SDS011;4010;42.698;23.124;2023-02-01T01:20:07;3.28;;;2.13;;
7929;SDS011;4010;42.698;23.124;2023-02-01T01:22:35;2.28;;;1.90;;
7929;SDS011;4010;42.698;23.124;2023-02-01T01:25:03;1.67;;;1.55;;
7929;SDS011;4010;42.698;23.124;2023-02-01T01:27:31;2.83;;;2.00;;
7929;SDS011;4010;42.698;23.124;2023-02-01T01:29:57;4.13;;;1.60;;
7929;SDS011;4010;42.698;23.124;2023-02-01T01:32:24;4.55;;;1.83;;
7929;SDS011;4010;42.698;23.124;2023-02-01T01:34:51;4.57;;;1.90;;
7929;SDS011;4010;42.698;23.124;2023-02-01T01:37:17;2.40;;;1.90;;
7929;SDS011;4010;42.698;23.124;2023-02-01T01:39:44;3.30;;;2.15;;
7929;SDS011;4010;42.698;23.124;2023-02-01T01:42:12;3.78;;;2.20;;
7929;SDS011;4010;42.698;23.124;2023-02-01T01:47:30;2.05;;;1.88;;
7929;SDS011;4010;42.698;23.124;2023-02-01T01:50:01;1.35;;;1.27;;
7929;SDS011;4010;42.698;23.124;2023-02-01T01:52:29;1.52;;;1.33;;
7929;SDS011;4010;42.698;23.124;2023-02-01T01:54:56;3.30;;;2.03;;
7929;SDS011;4010;42.698;23.124;2023-02-01T01:57:26;3.65;;;1.45;;
7929;SDS011;4010;42.698;23.124;2023-02-01T01:59:58;1.65;;;1.38;;
7929;SDS011;4010;42.698;23.124;2023-02-01T02:02:32;1.58;;;1.48;;
7929;SDS011;4010;42.698;23.124;2023-02-01T02:04:59;3.67;;;1.65;;
7929;SDS011;4010;42.698;23.124;2023-02-01T02:07:26;1.73;;;1.63;;
7929;SDS011;4010;42.698;23.124;2023-02-01T02:09:56;1.23;;;1.13;;
7929;SDS011;4010;42.698;23.124;2023-02-01T02:12:23;5.07;;;2.38;;
7929;SDS011;4010;42.698;23.124;2023-02-01T02:14:51;4.28;;;1.98;;
7929;SDS011;4010;42.698;23.124;2023-02-01T02:17:30;1.80;;;1.67;;
7929;SDS011;4010;42.698;23.124;2023-02-01T02:20:20;4.85;;;2.00;;
7929;SDS011;4010;42.698;23.124;2023-02-01T02:23:05;4.35;;;2.38;;
7929;SDS011;4010;42.698;23.124;2023-02-01T02:26:06;2.60;;;1.65;;
7929;SDS011;4010;42.698;23.124;2023-02-01T02:28:51;4.50;;;2.53;;
7929;SDS011;4010;42.698;23.124;2023-02-01T02:31:40;3.67;;;1.98;;
7929;SDS011;4010;42.698;23.124;2023-02-01T02:34:26;2.45;;;2.25;;
7929;SDS011;4010;42.698;23.124;2023-02-01T02:36:58;7.10;;;3.38;;
7929;SDS011;4010;42.698;23.124;2023-02-01T02:39:37;4.78;;;2.72;;
7929;SDS011;4010;42.698;23.124;2023-02-01T02:42:12;2.20;;;1.80;;
7929;SDS011;4010;42.698;23.124;2023-02-01T02:45:17;7.63;;;2.58;;
7929;SDS011;4010;42.698;23.124;2023-02-01T02:48:05;6.10;;;2.08;;
7929;SDS011;4010;42.698;23.124;2023-02-01T02:50:41;3.00;;;1.70;;
7929;SDS011;4010;42.698;23.124;2023-02-01T02:53:38;2.10;;;1.52;;
7929;SDS011;4010;42.698;23.124;2023-02-01T02:56:29;3.67;;;1.88;;
7929;SDS011;4010;42.698;23.124;2023-02-01T02:59:14;2.40;;;1.50;;
7929;SDS011;4010;42.698;23.124;2023-02-01T03:02:02;1.80;;;1.33;;
7929;SDS011;4010;42.698;23.124;2023-02-01T03:04:51;2.03;;;1.40;;
7929;SDS011;4010;42.698;23.124;2023-02-01T03:10:23;5.43;;;2.20;;
7929;SDS011;4010;42.698;23.124;2023-02-01T03:12:54;2.13;;;1.80;;
7929;SDS011;4010;42.698;23.124;2023-02-01T03:15:30;2.55;;;1.92;;
7929;SDS011;4010;42.698;23.124;2023-02-01T03:18:02;1.85;;;1.65;;
7929;SDS011;4010;42.698;23.124;2023-02-01T03:20:33;2.83;;;2.40;;
7929;SDS011;4010;42.698;23.124;2023-02-01T03:23:04;3.10;;;1.70;;
7929;SDS011;4010;42.698;23.124;2023-02-01T03:25:32;2.30;;;2.00;;
7929;SDS011;4010;42.698;23.124;2023-02-01T03:28:01;3.15;;;2.08;;
7929;SDS011;4010;42.698;23.124;2023-02-01T03:30:33;2.47;;;1.73;;
7929;SDS011;4010;42.698;23.124;2023-02-01T03:33:04;1.98;;;1.83;;
7929;SDS011;4010;42.698;23.124;2023-02-01T03:35:39;1.85;;;1.58;;
7929;SDS011;4010;42.698;23.124;2023-02-01T03:38:14;4.80;;;1.60;;
7929;SDS011;4010;42.698;23.124;2023-02-01T03:40:48;2.95;;;1.80;;
7929;SDS011;4010;42.698;23.124;2023-02-01T03:43:19;1.83;;;1.60;;
7929;SDS011;4010;42.698;23.124;2023-02-01T03:45:49;2.05;;;1.27;;
7929;SDS011;4010;42.698;23.124;2023-02-01T03:48:20;2.05;;;1.67;;
7929;SDS011;4010;42.698;23.124;2023-02-01T03:50:51;10.27;;;4.20;;
7929;SDS011;4010;42.698;23.124;2023-02-01T03:53:21;2.83;;;1.80;;
7929;SDS011;4010;42.698;23.124;2023-02-01T03:55:50;3.35;;;2.00;;
7929;SDS011;4010;42.698;23.124;2023-02-01T03:58:19;1.88;;;1.60;;
7929;SDS011;4010;42.698;23.124;2023-02-01T04:00:49;1.83;;;1.73;;
7929;SDS011;4010;42.698;23.124;2023-02-01T04:03:19;2.38;;;1.67;;
7929;SDS011;4010;42.698;23.124;2023-02-01T04:05:46;2.08;;;1.70;;
7929;SDS011;4010;42.698;23.124;2023-02-01T04:08:13;4.32;;;1.75;;
7929;SDS011;4010;42.698;23.124;2023-02-01T04:10:41;4.35;;;2.10;;
7929;SDS011;4010;42.698;23.124;2023-02-01T04:13:09;1.70;;;1.40;;
7929;SDS011;4010;42.698;23.124;2023-02-01T04:15:35;3.47;;;1.70;;
7929;SDS011;4010;42.698;23.124;2023-02-01T04:18:02;3.65;;;1.75;;
7929;SDS011;4010;42.698;23.124;2023-02-01T04:20:29;1.80;;;1.70;;
7929;SDS011;4010;42.698;23.124;2023-02-01T04:22:56;2.17;;;1.80;;
7929;SDS011;4010;42.698;23.124;2023-02-01T04:25:23;3.05;;;1.85;;
7929;SDS011;4010;42.698;23.124;2023-02-01T04:27:51;9.55;;;1.85;;
7929;SDS011;4010;42.698;23.124;2023-02-01T04:30:18;1.98;;;1.85;;
7929;SDS011;4010;42.698;23.124;2023-02-01T04:32:48;3.03;;;1.77;;
7929;SDS011;4010;42.698;23.124;2023-02-01T04:35:14;2.22;;;1.80;;
7929;SDS011;4010;42.698;23.124;2023-02-01T04:37:42;2.30;;;1.90;;
7929;SDS011;4010;42.698;23.124;2023-02-01T04:40:09;3.15;;;2.08;;
7929;SDS011;4010;42.698;23.124;2023-02-01T04:42:37;3.78;;;2.20;;
7929;SDS011;4010;42.698;23.124;2023-02-01T04:45:05;2.20;;;1.60;;
7929;SDS011;4010;42.698;23.124;2023-02-01T04:47:33;2.55;;;1.67;;
7929;SDS011;4010;42.698;23.124;2023-02-01T04:50:00;3.78;;;1.95;;
7929;SDS011;4010;42.698;23.124;2023-02-01T04:52:27;2.38;;;1.90;;
7929;SDS011;4010;42.698;23.124;2023-02-01T04:54:54;3.08;;;2.15;;
7929;SDS011;4010;42.698;23.124;2023-02-01T04:57:22;4.50;;;2.00;;
7929;SDS011;4010;42.698;23.124;2023-02-01T04:59:49;2.80;;;2.10;;
7929;SDS011;4010;42.698;23.124;2023-02-01T05:02:17;4.47;;;1.90;;
7929;SDS011;4010;42.698;23.124;2023-02-01T05:04:44;4.13;;;2.17;;
7929;SDS011;4010;42.698;23.124;2023-02-01T05:07:10;5.47;;;2.00;;
7929;SDS011;4010;42.698;23.124;2023-02-01T05:09:37;4.80;;;3.13;;
7929;SDS011;4010;42.698;23.124;2023-02-01T05:12:04;4.40;;;3.15;;
7929;SDS011;4010;42.698;23.124;2023-02-01T05:14:48;8.65;;;4.82;;
7929;SDS011;4010;42.698;23.124;2023-02-01T05:17:16;8.30;;;5.90;;
7929;SDS011;4010;42.698;23.124;2023-02-01T05:19:43;4.68;;;2.80;;
7929;SDS011;4010;42.698;23.124;2023-02-01T05:22:10;2.47;;;1.85;;
7929;SDS011;4010;42.698;23.124;2023-02-01T05:24:36;3.08;;;1.52;;
7929;SDS011;4010;42.698;23.124;2023-02-01T05:27:03;5.72;;;1.60;;
7929;SDS011;4010;42.698;23.124;2023-02-01T05:29:30;1.80;;;1.70;;
7929;SDS011;4010;42.698;23.124;2023-02-01T05:31:56;3.08;;;1.67;;
7929;SDS011;4010;42.698;23.124;2023-02-01T05:34:24;2.58;;;2.17;;
7929;SDS011;4010;42.698;23.124;2023-02-01T05:36:51;4.30;;;2.55;;
7929;SDS011;4010;42.698;23.124;2023-02-01T05:39:18;4.05;;;1.92;;
7929;SDS011;4010;42.698;23.124;2023-02-01T05:41:44;2.42;;;1.83;;
7929;SDS011;4010;42.698;23.124;2023-02-01T05:44:11;3.28;;;2.15;;
7929;SDS011;4010;42.698;23.124;2023-02-01T05:46:38;3.42;;;2.30;;
7929;SDS011;4010;42.698;23.124;2023-02-01T05:49:04;2.67;;;1.90;;
7929;SDS011;4010;42.698;23.124;2023-02-01T05:51:32;2.28;;;2.08;;
7929;SDS011;4010;42.698;23.124;2023-02-01T05:53:59;3.60;;;1.95;;
7929;SDS011;4010;42.698;23.124;2023-02-01T05:56:26;3.47;;;1.83;;
7929;SDS011;4010;42.698;23.124;2023-02-01T05:58:52;4.25;;;2.33;;
7929;SDS011;4010;42.698;23.124;2023-02-01T06:01:20;6.00;;;3.80;;
7929;SDS011;4010;42.698;23.124;2023-02-01T06:03:46;5.70;;;3.75;;
7929;SDS011;4010;42.698;23.124;2023-02-01T06:06:13;6.80;;;3.15;;
7929;SDS011;4010;42.698;23.124;2023-02-01T06:08:41;4.30;;;2.30;;
7929;SDS011;4010;42.698;23.124;2023-02-01T06:11:07;2.92;;;1.92;;
7929;SDS011;4010;42.698;23.124;2023-02-01T06:13:34;3.83;;;2.15;;
7929;SDS011;4010;42.698;23.124;2023-02-01T06:16:03;7.55;;;2.42;;
7929;SDS011;4010;42.698;23.124;2023-02-01T06:18:32;4.57;;;2.63;;
7929;SDS011;4010;42.698;23.124;2023-02-01T06:20:59;5.10;;;2.55;;
7929;SDS011;4010;42.698;23.124;2023-02-01T06:23:26;4.43;;;1.58;;
7929;SDS011;4010;42.698;23.124;2023-02-01T06:25:59;5.03;;;2.33;;
7929;SDS011;4010;42.698;23.124;2023-02-01T06:28:27;2.80;;;2.35;;
7929;SDS011;4010;42.698;23.124;2023-02-01T06:30:54;4.80;;;2.65;;
7929;SDS011;4010;42.698;23.124;2023-02-01T06:33:23;4.38;;;1.98;;
7929;SDS011;4010;42.698;23.124;2023-02-01T06:35:56;5.13;;;2.90;;
7929;SDS011;4010;42.698;23.124;2023-02-01T06:38:23;3.13;;;2.20;;
7929;SDS011;4010;42.698;23.124;2023-02-01T06:40:51;4.68;;;3.00;;
7929;SDS011;4010;42.698;23.124;2023-02-01T06:43:20;4.10;;;2.65;;
7929;SDS011;4010;42.698;23.124;2023-02-01T06:45:47;2.10;;;1.67;;
7929;SDS011;4010;42.698;23.124;2023-02-01T06:48:13;4.63;;;2.23;;
7929;SDS011;4010;42.698;23.124;2023-02-01T06:50:40;4.45;;;3.10;;
7929;SDS011;4010;42.698;23.124;2023-02-01T06:53:06;7.73;;;2.80;;
7929;SDS011;4010;42.698;23.124;2023-02-01T06:55:33;4.30;;;2.83;;
7929;SDS011;4010;42.698;23.124;2023-02-01T06:58:00;5.17;;;3.23;;
7929;SDS011;4010;42.698;23.124;2023-02-01T07:00:28;16.73;;;6.20;;
7929;SDS011;4010;42.698;23.124;2023-02-01T07:02:56;27.20;;;10.47;;
7929;SDS011;4010;42.698;23.124;2023-02-01T07:05:23;8.15;;;4.57;;
7929;SDS011;4010;42.698;23.124;2023-02-01T07:07:50;8.20;;;3.27;;
7929;SDS011;4010;42.698;23.124;2023-02-01T07:10:17;11.13;;;5.07;;
7929;SDS011;4010;42.698;23.124;2023-02-01T07:12:43;9.57;;;3.93;;
7929;SDS011;4010;42.698;23.124;2023-02-01T07:15:10;8.27;;;5.22;;
7929;SDS011;4010;42.698;23.124;2023-02-01T07:17:38;6.13;;;3.60;;
7929;SDS011;4010;42.698;23.124;2023-02-01T07:20:05;6.97;;;3.55;;
7929;SDS011;4010;42.698;23.124;2023-02-01T07:22:34;7.53;;;3.63;;
7929;SDS011;4010;42.698;23.124;2023-02-01T07:25:00;8.50;;;3.80;;
7929;SDS011;4010;42.698;23.124;2023-02-01T07:27:27;11.43;;;5.67;;
7929;SDS011;4010;42.698;23.124;2023-02-01T07:29:54;4.93;;;3.00;;
7929;SDS011;4010;42.698;23.124;2023-02-01T07:32:21;6.00;;;3.77;;
7929;SDS011;4010;42.698;23.124;2023-02-01T07:34:49;8.23;;;4.57;;
7929;SDS011;4010;42.698;23.124;2023-02-01T07:37:16;4.97;;;2.33;;
7929;SDS011;4010;42.698;23.124;2023-02-01T07:39:43;4.60;;;2.90;;
7929;SDS011;4010;42.698;23.124;2023-02-01T07:42:10;3.97;;;2.43;;
7929;SDS011;4010;42.698;23.124;2023-02-01T07:44:36;4.75;;;2.60;;
7929;SDS011;4010;42.698;23.124;2023-02-01T07:47:03;4.90;;;2.33;;
7929;SDS011;4010;42.698;23.124;2023-02-01T07:49:30;4.63;;;1.70;;
7929;SDS011;4010;42.698;23.124;2023-02-01T07:51:58;2.70;;;1.50;;
7929;SDS011;4010;42.698;23.124;2023-02-01T07:54:24;2.40;;;2.03;;
7929;SDS011;4010;42.698;23.124;2023-02-01T07:56:52;3.10;;;2.37;;
7929;SDS011;4010;42.698;23.124;2023-02-01T07:59:18;2.13;;;1.53;;
7929;SDS011;4010;42.698;23.124;2023-02-01T08:01:45;4.07;;;1.70;;
7929;SDS011;4010;42.698;23.124;2023-02-01T08:04:11;2.33;;;2.00;;
7929;SDS011;4010;42.698;23.124;2023-02-01T08:06:39;4.47;;;2.40;;
7929;SDS011;4010;42.698;23.124;2023-02-01T08:09:07;4.03;;;1.60;;
7929;SDS011;4010;42.698;23.124;2023-02-01T08:11:35;1.40;;;1.27;;
7929;SDS011;4010;42.698;23.124;2023-02-01T08:14:02;7.50;;;3.70;;
7929;SDS011;4010;42.698;23.124;2023-02-01T08:16:29;4.43;;;2.97;;
7929;SDS011;4010;42.698;23.124;2023-02-01T08:18:56;15.03;;;8.97;;
7929;SDS011;4010;42.698;23.124;2023-02-01T08:21:23;4.30;;;2.00;;
7929;SDS011;4010;42.698;23.124;2023-02-01T08:23:53;2.77;;;1.63;;
7929;SDS011;4010;42.698;23.124;2023-02-01T08:26:23;7.13;;;1.90;;
7929;SDS011;4010;42.698;23.124;2023-02-01T08:28:53;2.43;;;1.70;;
7929;SDS011;4010;42.698;23.124;2023-02-01T08:31:22;4.63;;;2.00;;
7929;SDS011;4010;42.698;23.124;2023-02-01T08:33:50;5.87;;;3.07;;
7929;SDS011;4010;42.698;23.124;2023-02-01T08:36:18;8.07;;;4.03;;
7929;SDS011;4010;42.698;23.124;2023-02-01T08:38:44;11.33;;;6.83;;
7929;SDS011;4010;42.698;23.124;2023-02-01T08:41:12;13.03;;;7.10;;
7929;SDS011;4010;42.698;23.124;2023-02-01T08:43:41;7.13;;;4.50;;
7929;SDS011;4010;42.698;23.124;2023-02-01T08:46:09;7.13;;;3.27;;
7929;SDS011;4010;42.698;23.124;2023-02-01T08:48:37;3.30;;;2.63;;
7929;SDS011;4010;42.698;23.124;2023-02-01T08:51:05;8.63;;;2.80;;
7929;SDS011;4010;42.698;23.124;2023-02-01T08:53:34;2.80;;;1.80;;
7929;SDS011;4010;42.698;23.124;2023-02-01T08:56:02;3.23;;;2.30;;
7929;SDS011;4010;42.698;23.124;2023-02-01T08:58:29;3.97;;;2.03;;
7929;SDS011;4010;42.698;23.124;2023-02-01T09:01:01;2.83;;;2.30;;
7929;SDS011;4010;42.698;23.124;2023-02-01T09:03:29;2.27;;;1.47;;
7929;SDS011;4010;42.698;23.124;2023-02-01T09:05:59;2.40;;;1.47;;
7929;SDS011;4010;42.698;23.124;2023-02-01T09:08:26;2.03;;;1.40;;
7929;SDS011;4010;42.698;23.124;2023-02-01T09:10:53;4.03;;;2.20;;
7929;SDS011;4010;42.698;23.124;2023-02-01T09:13:19;3.50;;;2.10;;
7929;SDS011;4010;42.698;23.124;2023-02-01T09:15:50;5.37;;;1.90;;
7929;SDS011;4010;42.698;23.124;2023-02-01T09:18:18;2.10;;;1.37;;
7929;SDS011;4010;42.698;23.124;2023-02-01T09:20:44;2.90;;;2.60;;
7929;SDS011;4010;42.698;23.124;2023-02-01T09:23:11;3.83;;;1.60;;
7929;SDS011;4010;42.698;23.124;2023-02-01T09:25:38;2.40;;;1.53;;
7929;SDS011;4010;42.698;23.124;2023-02-01T09:28:04;2.80;;;1.77;;
7929;SDS011;4010;42.698;23.124;2023-02-01T09:30:34;8.37;;;3.70;;
7929;SDS011;4010;42.698;23.124;2023-02-01T09:33:01;2.23;;;1.53;;
7929;SDS011;4010;42.698;23.124;2023-02-01T09:35:30;3.43;;;2.50;;
7929;SDS011;4010;42.698;23.124;2023-02-01T09:37:57;2.37;;;1.70;;
7929;SDS011;4010;42.698;23.124;2023-02-01T09:40:23;0.93;;;0.90;;
7929;SDS011;4010;42.698;23.124;2023-02-01T09:43:03;1.60;;;1.27;;
7929;SDS011;4010;42.698;23.124;2023-02-01T09:45:43;2.07;;;1.43;;
7929;SDS011;4010;42.698;23.124;2023-02-01T09:48:19;2.13;;;1.77;;
7929;SDS011;4010;42.698;23.124;2023-02-01T09:50:52;2.10;;;1.77;;
7929;SDS011;4010;42.698;23.124;2023-02-01T09:53:23;1.70;;;1.07;;
7929;SDS011;4010;42.698;23.124;2023-02-01T09:55:54;3.03;;;2.20;;
7929;SDS011;4010;42.698;23.124;2023-02-01T09:58:25;3.33;;;2.20;;
7929;SDS011;4010;42.698;23.124;2023-02-01T10:00:57;2.97;;;1.90;;
7929;SDS011;4010;42.698;23.124;2023-02-01T10:03:26;2.90;;;1.63;;
7929;SDS011;4010;42.698;23.124;2023-02-01T10:06:01;2.93;;;1.83;;
7929;SDS011;4010;42.698;23.124;2023-02-01T10:08:48;3.53;;;1.77;;
7929;SDS011;4010;42.698;23.124;2023-02-01T10:11:27;5.50;;;2.20;;
7929;SDS011;4010;42.698;23.124;2023-02-01T10:14:14;3.90;;;1.87;;
7929;SDS011;4010;42.698;23.124;2023-02-01T10:16:55;3.50;;;2.27;;
7929;SDS011;4010;42.698;23.124;2023-02-01T10:19:31;2.50;;;1.53;;
7929;SDS011;4010;42.698;23.124;2023-02-01T10:22:16;3.47;;;1.50;;
7929;SDS011;4010;42.698;23.124;2023-02-01T10:24:58;5.20;;;2.10;;
7929;SDS011;4010;42.698;23.124;2023-02-01T10:27:34;4.47;;;3.43;;
7929;SDS011;4010;42.698;23.124;2023-02-01T10:30:04;4.93;;;2.90;;
7929;SDS011;4010;42.698;23.124;2023-02-01T10:32:40;3.63;;;2.40;;
7929;SDS011;4010;42.698;23.124;2023-02-01T10:35:08;5.17;;;2.90;;
7929;SDS011;4010;42.698;23.124;2023-02-01T10:37:40;3.13;;;2.40;;
7929;SDS011;4010;42.698;23.124;2023-02-01T10:40:12;2.37;;;1.50;;
7929;SDS011;4010;42.698;23.124;2023-02-01T10:42:43;2.60;;;2.33;;
7929;SDS011;4010;42.698;23.124;2023-02-01T10:45:12;4.50;;;2.20;;
7929;SDS011;4010;42.698;23.124;2023-02-01T10:47:42;2.60;;;1.80;;
7929;SDS011;4010;42.698;23.124;2023-02-01T10:50:13;4.60;;;2.00;;
7929;SDS011;4010;42.698;23.124;2023-02-01T10:52:46;7.47;;;4.33;;
7929;SDS011;4010;42.698;23.124;2023-02-01T10:55:27;5.40;;;3.47;;
7929;SDS011;4010;42.698;23.124;2023-02-01T10:57:56;3.87;;;2.47;;
7929;SDS011;4010;42.698;23.124;2023-02-01T11:00:24;3.67;;;2.03;;
7929;SDS011;4010;42.698;23.124;2023-02-01T11:02:51;2.07;;;1.80;;
7929;SDS011;4010;42.698;23.124;2023-02-01T11:05:19;3.97;;;2.80;;
7929;SDS011;4010;42.698;23.124;2023-02-01T11:07:49;2.10;;;1.90;;
7929;SDS011;4010;42.698;23.124;2023-02-01T11:10:36;3.07;;;1.90;;
7929;SDS011;4010;42.698;23.124;2023-02-01T11:13:11;5.87;;;4.50;;
7929;SDS011;4010;42.698;23.124;2023-02-01T11:15:42;4.30;;;3.50;;
7929;SDS011;4010;42.698;23.124;2023-02-01T11:18:15;3.77;;;2.30;;
7929;SDS011;4010;42.698;23.124;2023-02-01T11:20:43;3.07;;;1.40;;
7929;SDS011;4010;42.698;23.124;2023-02-01T11:23:16;2.47;;;1.70;;
7929;SDS011;4010;42.698;23.124;2023-02-01T11:25:47;5.10;;;3.80;;
7929;SDS011;4010;42.698;23.124;2023-02-01T11:28:16;8.60;;;5.10;;
7929;SDS011;4010;42.698;23.124;2023-02-01T11:30:45;3.73;;;2.27;;
7929;SDS011;4010;42.698;23.124;2023-02-01T11:33:14;1.87;;;1.53;;
7929;SDS011;4010;42.698;23.124;2023-02-01T11:35:44;7.70;;;3.70;;
7929;SDS011;4010;42.698;23.124;2023-02-01T11:38:13;4.97;;;2.97;;
7929;SDS011;4010;42.698;23.124;2023-02-01T11:40:47;1.97;;;1.70;;
7929;SDS011;4010;42.698;23.124;2023-02-01T11:43:16;14.30;;;6.87;;
7929;SDS011;4010;42.698;23.124;2023-02-01T11:45:55;1.40;;;1.30;;
7929;SDS011;4010;42.698;23.124;2023-02-01T11:48:25;1.87;;;1.60;;
7929;SDS011;4010;42.698;23.124;2023-02-01T11:50:55;4.53;;;3.33;;
7929;SDS011;4010;42.698;23.124;2023-02-01T11:53:34;3.00;;;1.60;;
7929;SDS011;4010;42.698;23.124;2023-02-01T11:56:17;5.43;;;2.80;;
7929;SDS011;4010;42.698;23.124;2023-02-01T12:01:56;2.77;;;2.17;;
7929;SDS011;4010;42.698;23.124;2023-02-01T12:04:45;4.67;;;2.97;;
7929;SDS011;4010;42.698;23.124;2023-02-01T12:07:28;2.40;;;1.90;;
7929;SDS011;4010;42.698;23.124;2023-02-01T12:10:07;4.40;;;3.90;;
7929;SDS011;4010;42.698;23.124;2023-02-01T12:12:51;1.57;;;1.47;;
7929;SDS011;4010;42.698;23.124;2023-02-01T12:15:32;1.50;;;1.00;;
7929;SDS011;4010;42.698;23.124;2023-02-01T12:18:26;3.47;;;1.37;;
7929;SDS011;4010;42.698;23.124;2023-02-01T12:21:14;2.17;;;1.43;;
7929;SDS011;4010;42.698;23.124;2023-02-01T12:23:58;1.10;;;1.00;;
7929;SDS011;4010;42.698;23.124;2023-02-01T12:26:38;3.60;;;2.53;;
7929;SDS011;4010;42.698;23.124;2023-02-01T12:29:15;4.73;;;2.63;;
7929;SDS011;4010;42.698;23.124;2023-02-01T12:32:04;2.33;;;1.13;;
7929;SDS011;4010;42.698;23.124;2023-02-01T12:34:44;2.47;;;1.90;;
7929;SDS011;4010;42.698;23.124;2023-02-01T12:37:22;1.87;;;1.30;;
7929;SDS011;4010;42.698;23.124;2023-02-01T12:40:05;2.70;;;1.83;;
7929;SDS011;4010;42.698;23.124;2023-02-01T12:42:50;1.70;;;1.10;;
7929;SDS011;4010;42.698;23.124;2023-02-01T12:45:25;1.53;;;1.43;;
7929;SDS011;4010;42.698;23.124;2023-02-01T12:47:57;3.10;;;2.30;;
7929;SDS011;4010;42.698;23.124;2023-02-01T12:50:33;6.83;;;2.83;;
7929;SDS011;4010;42.698;23.124;2023-02-01T12:53:09;1.77;;;1.50;;
7929;SDS011;4010;42.698;23.124;2023-02-01T12:55:46;2.00;;;1.00;;
7929;SDS011;4010;42.698;23.124;2023-02-01T12:58:18;0.60;;;0.60;;
7929;SDS011;4010;42.698;23.124;2023-02-01T13:00:51;1.70;;;1.33;;
7929;SDS011;4010;42.698;23.124;2023-02-01T13:03:28;10.27;;;1.00;;
7929;SDS011;4010;42.698;23.124;2023-02-01T13:06:01;8.53;;;5.83;;
7929;SDS011;4010;42.698;23.124;2023-02-01T13:08:35;2.57;;;1.70;;
7929;SDS011;4010;42.698;23.124;2023-02-01T13:11:09;6.53;;;4.80;;
7929;SDS011;4010;42.698;23.124;2023-02-01T13:13:44;3.23;;;1.80;;
7929;SDS011;4010;42.698;23.124;2023-02-01T13:16:21;2.57;;;1.40;;
7929;SDS011;4010;42.698;23.124;2023-02-01T13:18:55;2.23;;;1.50;;
7929;SDS011;4010;42.698;23.124;2023-02-01T13:21:31;5.10;;;3.03;;
7929;SDS011;4010;42.698;23.124;2023-02-01T13:24:01;4.77;;;2.30;;
7929;SDS011;4010;42.698;23.124;2023-02-01T13:26:28;5.97;;;3.10;;
7929;SDS011;4010;42.698;23.124;2023-02-01T13:28:57;5.83;;;3.30;;
7929;SDS011;4010;42.698;23.124;2023-02-01T13:34:32;5.83;;;3.07;;
7929;SDS011;4010;42.698;23.124;2023-02-01T13:37:39;12.77;;;5.03;;
7929;SDS011;4010;42.698;23.124;2023-02-01T13:40:26;8.87;;;4.43;;
7929;SDS011;4010;42.698;23.124;2023-02-01T13:43:05;1.63;;;1.20;;
7929;SDS011;4010;42.698;23.124;2023-02-01T13:45:41;5.93;;;3.30;;
7929;SDS011;4010;42.698;23.124;2023-02-01T13:48:19;0.93;;;0.93;;
7929;SDS011;4010;42.698;23.124;2023-02-01T13:50:53;4.40;;;1.60;;
7929;SDS011;4010;42.698;23.124;2023-02-01T13:53:23;3.00;;;1.47;;
7929;SDS011;4010;42.698;23.124;2023-02-01T13:55:56;2.03;;;1.50;;
7929;SDS011;4010;42.698;23.124;2023-02-01T13:58:29;1.70;;;1.60;;
7929;SDS011;4010;42.698;23.124;2023-02-01T14:03:59;3.70;;;2.60;;
7929;SDS011;4010;42.698;23.124;2023-02-01T14:09:30;1.97;;;1.37;;
7929;SDS011;4010;42.698;23.124;2023-02-01T14:15:17;2.13;;;1.40;;
7929;SDS011;4010;42.698;23.124;2023-02-01T14:17:51;3.27;;;2.43;;
7929;SDS011;4010;42.698;23.124;2023-02-01T14:23:17;1.57;;;1.10;;
7929;SDS011;4010;42.698;23.124;2023-02-01T14:25:46;2.03;;;1.83;;
7929;SDS011;4010;42.698;23.124;2023-02-01T14:28:28;4.97;;;2.93;;
7929;SDS011;4010;42.698;23.124;2023-02-01T14:30:56;9.13;;;5.13;;
7929;SDS011;4010;42.698;23.124;2023-02-01T14:33:25;5.17;;;2.20;;
7929;SDS011;4010;42.698;23.124;2023-02-01T14:36:01;4.03;;;2.03;;
7929;SDS011;4010;42.698;23.124;2023-02-01T14:38:31;6.17;;;3.53;;
7929;SDS011;4010;42.698;23.124;2023-02-01T14:41:10;3.07;;;2.37;;
7929;SDS011;4010;42.698;23.124;2023-02-01T14:43:51;2.47;;;1.67;;
7929;SDS011;4010;42.698;23.124;2023-02-01T14:49:37;2.60;;;1.30;;
7929;SDS011;4010;42.698;23.124;2023-02-01T14:52:11;5.17;;;2.30;;
7929;SDS011;4010;42.698;23.124;2023-02-01T14:54:49;4.93;;;3.53;;
7929;SDS011;4010;42.698;23.124;2023-02-01T14:57:22;4.90;;;4.20;;
7929;SDS011;4010;42.698;23.124;2023-02-01T14:59:54;8.43;;;5.80;;
7929;SDS011;4010;42.698;23.124;2023-02-01T15:02:30;12.20;;;5.33;;
7929;SDS011;4010;42.698;23.124;2023-02-01T15:05:01;8.53;;;4.37;;
7929;SDS011;4010;42.698;23.124;2023-02-01T15:07:29;6.07;;;3.37;;
7929;SDS011;4010;42.698;23.124;2023-02-01T15:09:56;8.00;;;4.07;;
7929;SDS011;4010;42.698;23.124;2023-02-01T15:12:25;8.10;;;3.93;;
7929;SDS011;4010;42.698;23.124;2023-02-01T15:15:05;12.60;;;4.17;;
7929;SDS011;4010;42.698;23.124;2023-02-01T15:17:37;15.03;;;4.57;;
7929;SDS011;4010;42.698;23.124;2023-02-01T15:20:12;9.20;;;4.87;;
7929;SDS011;4010;42.698;23.124;2023-02-01T15:22:42;13.40;;;6.43;;
7929;SDS011;4010;42.698;23.124;2023-02-01T15:25:19;10.97;;;5.43;;
7929;SDS011;4010;42.698;23.124;2023-02-01T15:27:47;14.60;;;9.03;;
7929;SDS011;4010;42.698;23.124;2023-02-01T15:30:17;13.77;;;9.20;;
7929;SDS011;4010;42.698;23.124;2023-02-01T15:32:46;23.07;;;16.37;;
7929;SDS011;4010;42.698;23.124;2023-02-01T15:35:32;19.40;;;13.07;;
7929;SDS011;4010;42.698;23.124;2023-02-01T15:40:54;7.50;;;5.30;;
7929;SDS011;4010;42.698;23.124;2023-02-01T15:43:22;5.83;;;2.70;;
7929;SDS011;4010;42.698;23.124;2023-02-01T15:45:50;6.03;;;3.63;;
7929;SDS011;4010;42.698;23.124;2023-02-01T15:48:20;5.70;;;2.53;;
7929;SDS011;4010;42.698;23.124;2023-02-01T15:50:51;4.60;;;2.40;;
7929;SDS011;4010;42.698;23.124;2023-02-01T15:53:23;5.13;;;3.20;;
7929;SDS011;4010;42.698;23.124;2023-02-01T15:55:55;8.30;;;3.97;;